Airfield :
LOGIN :

Register | Disclaimer

   EN    FR    IT 

 










Legend :    VFR   Marginal VFR   IFR   Intensive IFR   Very Intensive IFR
Visi :
Ceiling :
>= 8 km
>= 3000ft
5 to 8 km
1000 to 3000 ft
1500m to 5 km
500 to 1000 ft
800 to 1500m
200 to 500 ft
< 800m
< 200 ft
Symbols :   Thunderstorms  Fog  Heavy snow  Heavy precipitations  Wind > 20 kt
SIGMETs :     Misc.  Thunderstorms  Icing  Turbulence  Mountain Waves  Volcanic Ashes






- Airport Elevation : 29 ft
- IATA code : SVG


ENZV - Sola

CURRENT METAR :
  • 270120Z 10004KT 5000 -SHRA FEW004 BKN025CB 17/17 Q1009

EXPIRED METARs :
  • 270050Z VRB02KT 4000 SHRA FEW005 BKN027CB 17/17 Q1009
  • 270020Z VRB03KT 5000 -TSRA FEW023 BKN040CB 17/17 Q1009
  • 262350Z 28006KT 5000 TSRA FEW004 BKN040CB 17/17 Q1009
  • 262320Z 31003KT 9999 4700SW -SHRA FEW005 BKN030CB 18/17 Q1009
  • 262250Z VRB02KT 5000 TSRA FEW002 BKN036CB 18/17 Q1009

TAF TAF ENZV
Valid from the 27 at 00:00 until the 28 at 00:00 UTC


2700/2724 VRB07KT 9999 FEW020 BKN040
TEMPO 2700/2719 4000 SHRA BKN012 SCT020CB
PROB30 2700/2701 TS
PROB30 2712/2719 TS
PROB40 2719/2724 BKN008



MET'MAP, your aeronautical weather chart ! - Copyright ORBIFLY December 2007 - Disclaimer

ORBIFLY MET'MAP TEAM :

Programming & Development : Alexandra Zaïnal
Concept & original design : Baudouin d'Aumeries
Assistance for programming : Marc-Olivier Méhu
Technical & hardware support : Manuel Goepfert

Contact : metmap@orbifly.com




SOURCES & CREDITS :

   NOAA